Time;durP1;ratioP1;P1;durP2;ratioP2;P2;SDS_P1;SDS_P2;PMS_P1;PMS_P2;Temp;Humidity;BMP_temperature;BMP_pressure;BME280_temperature;BME280_humidity;BME280_pressure;Samples;Min_cycle;Max_cycle;Signal;HPM_P1;HPM_P2
2021/08/24 00:01:49;;;;;;;3.00;1.48;;;16.70;72.20;;;;;;4998042;28;20022;-75
2021/08/24 00:04:15;;;;;;;2.10;1.40;;;16.60;72.10;;;;;;4990092;28;20398;-75
2021/08/24 00:06:40;;;;;;;3.40;1.52;;;16.60;72.20;;;;;;4988884;28;20022;-75
2021/08/24 00:09:06;;;;;;;3.42;1.50;;;16.60;72.30;;;;;;4989148;28;20041;-76
2021/08/24 00:11:33;;;;;;;1.92;1.30;;;16.60;72.50;;;;;;4989915;28;20109;-74
2021/08/24 00:14:04;;;;;;;1.77;1.45;;;16.60;72.50;;;;;;4995669;28;20027;-74
2021/08/24 00:16:29;;;;;;;1.90;1.35;;;16.60;72.60;;;;;;4983719;28;20037;-75
2021/08/24 00:18:55;;;;;;;2.03;1.23;;;16.50;72.50;;;;;;4999772;28;20033;-75
2021/08/24 00:21:21;;;;;;;2.30;1.60;;;16.50;72.50;;;;;;4987421;28;20027;-74
2021/08/24 00:23:46;;;;;;;2.03;1.50;;;16.50;72.50;;;;;;4993108;28;20529;-75
2021/08/24 00:26:12;;;;;;;2.88;1.55;;;16.50;72.60;;;;;;4992592;28;20065;-75
2021/08/24 00:28:38;;;;;;;1.63;1.45;;;16.40;72.80;;;;;;5001812;28;20054;-75
2021/08/24 00:31:03;;;;;;;1.85;1.30;;;16.40;72.80;;;;;;4986795;28;20030;-75
2021/08/24 00:33:29;;;;;;;2.17;1.40;;;16.40;72.90;;;;;;4980771;28;20027;-75
2021/08/24 00:35:54;;;;;;;1.50;1.30;;;16.40;73.00;;;;;;4989890;28;20052;-75
2021/08/24 00:38:24;;;;;;;1.77;1.40;;;16.40;72.90;;;;;;4986134;28;20038;-77
2021/08/24 00:40:57;;;;;;;1.40;1.20;;;16.40;72.90;;;;;;4988282;28;20061;-75
2021/08/24 00:43:24;;;;;;;2.60;1.67;;;16.40;72.90;;;;;;4988675;28;20038;-75
2021/08/24 00:46:03;;;;;;;1.88;1.40;;;16.40;72.90;;;;;;4990102;28;20046;-74
2021/08/24 00:48:32;;;;;;;1.92;1.48;;;16.40;72.80;;;;;;4985698;28;20018;-76
2021/08/24 00:50:57;;;;;;;1.73;1.60;;;16.30;72.90;;;;;;4987565;28;20018;-75
2021/08/24 00:53:26;;;;;;;2.63;1.70;;;16.30;73.00;;;;;;4990287;28;20106;-75
2021/08/24 00:55:54;;;;;;;3.28;1.83;;;16.30;73.20;;;;;;4987781;28;20041;-74
2021/08/24 00:58:20;;;;;;;2.83;1.50;;;16.30;73.30;;;;;;4991167;28;20457;-75
2021/08/24 01:00:47;;;;;;;3.10;1.50;;;16.20;73.30;;;;;;4983671;28;20046;-75
2021/08/24 01:03:19;;;;;;;2.60;1.70;;;16.20;73.30;;;;;;4991929;28;20059;-75
2021/08/24 01:05:45;;;;;;;;;;;16.20;73.40;;;;;;4986285;28;20034;-75
2021/08/24 01:08:32;;;;;;;2.00;1.60;;;16.20;73.30;;;;;;4992375;28;20512;-75
2021/08/24 01:11:23;;;;;;;3.08;1.80;;;16.10;73.50;;;;;;4982688;28;20030;-76
2021/08/24 01:14:09;;;;;;;2.45;1.50;;;16.10;73.60;;;;;;4985046;28;20109;-75
2021/08/24 01:16:44;;;;;;;1.98;1.60;;;16.00;73.70;;;;;;4997456;28;20070;-75
2021/08/24 01:19:45;;;;;;;2.97;1.73;;;16.10;73.80;;;;;;4985205;28;20069;-74
2021/08/24 01:22:47;;;;;;;3.03;1.67;;;16.00;74.20;;;;;;4984011;28;22025;-76
2021/08/24 01:25:17;;;;;;;3.35;1.67;;;16.00;74.10;;;;;;4994514;28;20060;-76
2021/08/24 01:27:53;;;;;;;2.88;1.70;;;16.00;74.20;;;;;;4988115;28;20564;-75
2021/08/24 01:30:43;;;;;;;2.33;1.55;;;16.00;74.30;;;;;;4988864;28;20126;-74
2021/08/24 01:33:21;;;;;;;3.13;1.60;;;15.90;74.30;;;;;;4984230;28;20030;-74
2021/08/24 01:36:30;;;;;;;2.13;1.92;;;15.90;74.40;;;;;;4991776;28;20479;-75
2021/08/24 01:39:08;;;;;;;3.45;2.00;;;15.90;74.50;;;;;;4975686;28;20041;-75
2021/08/24 01:41:48;;;;;;;1.85;1.65;;;15.90;74.70;;;;;;4996332;28;20030;-74
2021/08/24 01:44:17;;;;;;;2.92;1.80;;;15.80;74.70;;;;;;4979238;28;20096;-74
2021/08/24 01:47:07;;;;;;;3.00;1.77;;;15.80;74.80;;;;;;4994521;28;20044;-74
2021/08/24 01:49:43;;;;;;;2.97;2.15;;;15.80;74.80;;;;;;4992291;28;20026;-74
2021/08/24 01:52:13;;;;;;;3.05;1.73;;;15.80;75.00;;;;;;4990565;28;20041;-74
2021/08/24 01:54:46;;;;;;;2.25;1.50;;;15.70;75.10;;;;;;4996843;28;20067;-74
2021/08/24 01:57:18;;;;;;;2.80;1.67;;;15.70;75.10;;;;;;4986469;28;20039;-74
2021/08/24 01:59:53;;;;;;;3.20;1.83;;;15.70;75.30;;;;;;4988768;28;20084;-74
2021/08/24 02:02:26;;;;;;;3.25;1.70;;;15.70;75.40;;;;;;4987476;28;20166;-74
2021/08/24 02:05:00;;;;;;;2.25;1.70;;;15.60;75.40;;;;;;4987032;28;20038;-74
2021/08/24 02:07:29;;;;;;;3.00;2.08;;;15.60;76.20;;;;;;4988706;28;20238;-74
2021/08/24 02:10:00;;;;;;;3.92;2.20;;;15.60;75.80;;;;;;4994465;28;20537;-74
2021/08/24 02:12:30;;;;;;;2.70;1.90;;;15.60;75.80;;;;;;4985868;28;20037;-74
2021/08/24 02:14:55;;;;;;;3.15;1.85;;;15.60;75.90;;;;;;4988454;28;20529;-75
2021/08/24 02:17:23;;;;;;;4.70;2.00;;;15.60;75.90;;;;;;4997163;28;20159;-75
2021/08/24 02:19:54;;;;;;;2.70;2.00;;;15.50;76.10;;;;;;5000309;28;20114;-75
2021/08/24 02:22:29;;;;;;;2.30;1.90;;;15.60;76.20;;;;;;4989656;28;20031;-75
2021/08/24 02:25:03;;;;;;;2.25;1.70;;;15.50;76.20;;;;;;4994279;28;20061;-75
2021/08/24 02:27:32;;;;;;;3.58;2.10;;;15.50;76.20;;;;;;4994890;28;20035;-74
2021/08/24 02:29:58;;;;;;;3.38;2.30;;;15.50;76.30;;;;;;4996026;28;20129;-74
2021/08/24 02:32:47;;;;;;;2.35;2.00;;;15.50;76.60;;;;;;4988483;28;20046;-74
2021/08/24 02:35:22;;;;;;;2.92;1.88;;;15.50;76.70;;;;;;4984954;28;20533;-75
2021/08/24 02:37:52;;;;;;;3.38;1.92;;;15.50;76.70;;;;;;4990896;28;20385;-74
2021/08/24 02:40:34;;;;;;;2.05;1.80;;;15.50;76.80;;;;;;4982432;28;20389;-74
2021/08/24 02:43:07;;;;;;;2.58;1.90;;;15.50;76.80;;;;;;4984583;28;20034;-74
2021/08/24 02:45:37;;;;;;;2.80;1.95;;;15.40;76.80;;;;;;4990553;28;20038;-74
2021/08/24 02:48:06;;;;;;;3.22;2.38;;;15.40;76.80;;;;;;5002993;28;20022;-73
2021/08/24 02:50:32;;;;;;;2.58;2.20;;;15.40;77.00;;;;;;4986978;28;20069;-74
2021/08/24 02:52:58;;;;;;;2.85;2.30;;;15.40;77.20;;;;;;4993853;28;20500;-74
2021/08/24 02:55:23;;;;;;;2.70;2.00;;;15.40;77.30;;;;;;4988515;28;20041;-74
2021/08/24 02:57:49;;;;;;;3.25;2.00;;;15.30;77.40;;;;;;4994199;28;20065;-74
2021/08/24 03:00:15;;;;;;;3.88;2.53;;;15.30;77.40;;;;;;4990936;28;20034;-74
2021/08/24 03:02:41;;;;;;;4.55;2.70;;;15.30;77.60;;;;;;4995568;28;20478;-74
2021/08/24 03:05:07;;;;;;;3.97;2.20;;;15.30;77.90;;;;;;4990465;28;20038;-73
2021/08/24 03:07:35;;;;;;;5.65;2.50;;;15.30;77.90;;;;;;4989258;28;20121;-74
2021/08/24 03:10:05;;;;;;;5.18;2.30;;;15.20;78.00;;;;;;4990819;28;20057;-74
2021/08/24 03:12:52;;;;;;;3.70;2.38;;;15.20;78.10;;;;;;4988412;28;20018;-75
2021/08/24 03:15:36;;;;;;;4.20;2.45;;;15.20;78.30;;;;;;4985930;28;20385;-74
2021/08/24 03:18:08;;;;;;;3.40;2.55;;;15.20;78.50;;;;;;4981991;28;20030;-74
2021/08/24 03:20:37;;;;;;;4.93;3.10;;;15.10;78.50;;;;;;4989242;28;20493;-74
2021/08/24 03:23:05;;;;;;;3.92;2.72;;;15.10;78.60;;;;;;4993240;28;20058;-74
2021/08/24 03:25:32;;;;;;;4.05;2.55;;;15.20;78.70;;;;;;4992506;28;20034;-74
2021/08/24 03:27:58;;;;;;;3.60;2.38;;;15.20;78.60;;;;;;4987558;28;20030;-74
2021/08/24 03:30:24;;;;;;;4.25;2.85;;;15.20;78.60;;;;;;4989633;28;20026;-73
2021/08/24 03:32:51;;;;;;;2.97;2.40;;;15.20;78.70;;;;;;4992159;28;20029;-74
2021/08/24 03:35:18;;;;;;;4.93;2.90;;;15.20;78.90;;;;;;4991246;28;20054;-73
2021/08/24 03:37:44;;;;;;;4.80;2.15;;;15.20;79.00;;;;;;4988618;28;20724;-74
2021/08/24 03:40:11;;;;;;;3.92;2.60;;;15.20;79.00;;;;;;4989112;28;20120;-74
2021/08/24 03:42:37;;;;;;;4.78;2.50;;;15.20;79.10;;;;;;5000960;28;20049;-74
2021/08/24 03:45:06;;;;;;;4.13;2.83;;;15.20;79.10;;;;;;4992518;28;20033;-75
2021/08/24 03:47:32;;;;;;;4.32;3.00;;;15.20;79.10;;;;;;4986411;28;20022;-74
2021/08/24 03:49:57;;;;;;;3.75;2.70;;;15.20;79.20;;;;;;4991463;28;20045;-74
2021/08/24 03:52:23;;;;;;;3.95;3.05;;;15.10;79.30;;;;;;4990401;28;20181;-74
2021/08/24 03:54:49;;;;;;;3.63;2.72;;;15.10;79.50;;;;;;4984798;28;20046;-74
2021/08/24 03:57:15;;;;;;;4.45;2.70;;;15.10;79.50;;;;;;4988133;28;20060;-73
2021/08/24 03:59:41;;;;;;;3.53;2.53;;;15.10;79.50;;;;;;4992191;28;20031;-74
2021/08/24 04:02:06;;;;;;;5.13;3.40;;;15.10;79.60;;;;;;4988058;28;20034;-74
2021/08/24 04:04:33;;;;;;;3.83;3.10;;;15.10;79.70;;;;;;4991559;28;20031;-74
2021/08/24 04:06:58;;;;;;;4.75;3.05;;;15.10;79.90;;;;;;4988204;28;20031;-74
2021/08/24 04:09:24;;;;;;;4.22;2.88;;;15.10;80.00;;;;;;4990893;28;20073;-73
2021/08/24 04:11:50;;;;;;;3.90;2.47;;;15.00;80.00;;;;;;4992603;28;20027;-73
2021/08/24 04:14:15;;;;;;;3.85;2.97;;;15.00;80.10;;;;;;4992293;28;20481;-74
2021/08/24 04:16:41;;;;;;;5.68;3.70;;;15.10;80.10;;;;;;4986778;28;20022;-74
2021/08/24 04:19:08;;;;;;;5.55;3.22;;;15.00;80.40;;;;;;4986161;28;20117;-75
2021/08/24 04:21:38;;;;;;;4.90;3.40;;;15.00;80.50;;;;;;4991975;28;20026;-74
2021/08/24 04:24:04;;;;;;;7.07;3.55;;;15.00;80.50;;;;;;4987512;28;20026;-75
2021/08/24 04:26:30;;;;;;;6.00;3.28;;;15.00;80.70;;;;;;5001117;28;20116;-76
2021/08/24 04:28:55;;;;;;;4.22;3.42;;;15.00;80.70;;;;;;4982526;28;20733;-75
2021/08/24 04:31:21;;;;;;;4.57;3.03;;;14.90;80.80;;;;;;4987617;28;20366;-75
2021/08/24 04:33:46;;;;;;;5.35;3.60;;;14.90;81.00;;;;;;4990741;28;20445;-74
2021/08/24 04:36:12;;;;;;;6.45;3.15;;;14.90;81.00;;;;;;4993333;28;20291;-74
2021/08/24 04:38:38;;;;;;;3.80;3.00;;;15.00;81.10;;;;;;4989055;28;20033;-74
2021/08/24 04:41:06;;;;;;;4.80;2.90;;;15.00;81.10;;;;;;4989728;28;20477;-74
2021/08/24 04:43:31;;;;;;;3.05;2.40;;;15.00;81.10;;;;;;4987388;28;20022;-75
2021/08/24 04:45:57;;;;;;;5.63;3.10;;;15.00;81.00;;;;;;4990134;28;20049;-75
2021/08/24 04:48:22;;;;;;;4.38;3.20;;;15.00;81.10;;;;;;4985770;28;20021;-74
2021/08/24 04:50:48;;;;;;;4.97;3.47;;;15.00;81.20;;;;;;4998136;28;20062;-75
2021/08/24 04:53:13;;;;;;;4.90;3.10;;;15.00;81.20;;;;;;4996496;28;20022;-75
2021/08/24 04:55:39;;;;;;;5.97;3.67;;;15.00;81.10;;;;;;4990893;28;20370;-75
2021/08/24 04:58:05;;;;;;;6.65;3.30;;;15.00;81.20;;;;;;4995317;28;20390;-75
2021/08/24 05:00:32;;;;;;;6.25;3.97;;;15.00;81.10;;;;;;4991592;28;20032;-74
2021/08/24 05:02:58;;;;;;;5.18;3.55;;;15.00;81.30;;;;;;4983384;28;20758;-74
2021/08/24 05:05:24;;;;;;;4.88;3.10;;;15.00;81.30;;;;;;4986067;28;20050;-74
2021/08/24 05:07:49;;;;;;;4.80;3.85;;;15.10;81.30;;;;;;4990728;28;20022;-74
2021/08/24 05:10:15;;;;;;;5.20;3.75;;;15.00;81.40;;;;;;4997177;28;20362;-74
2021/08/24 05:12:40;;;;;;;6.30;3.92;;;15.10;81.50;;;;;;4991926;28;20089;-74
2021/08/24 05:15:07;;;;;;;4.30;3.35;;;15.00;81.60;;;;;;4992640;28;20060;-74
2021/08/24 05:17:32;;;;;;;4.63;3.35;;;15.00;81.60;;;;;;4988120;28;20030;-75
2021/08/24 05:19:58;;;;;;;4.05;3.00;;;15.10;81.60;;;;;;4997210;28;20026;-75
2021/08/24 05:22:23;;;;;;;5.63;3.58;;;15.10;81.50;;;;;;4991723;28;20453;-76
2021/08/24 05:24:49;;;;;;;5.78;3.97;;;15.10;81.60;;;;;;4979183;28;20034;-75
2021/08/24 05:27:14;;;;;;;4.93;3.05;;;15.10;81.50;;;;;;4980609;28;20366;-75
2021/08/24 05:29:40;;;;;;;4.95;3.22;;;15.20;81.60;;;;;;4978042;28;20034;-76
2021/08/24 05:32:06;;;;;;;5.55;3.67;;;15.20;81.60;;;;;;4978687;28;20044;-75
2021/08/24 05:34:31;;;;;;;4.45;3.03;;;15.50;81.70;;;;;;4997709;28;20557;-75
2021/08/24 05:36:57;;;;;;;4.20;3.10;;;16.30;80.50;;;;;;4988722;28;20088;-75
2021/08/24 05:39:22;;;;;;;3.85;2.92;;;17.00;78.50;;;;;;4984320;28;20027;-75
2021/08/24 05:41:48;;;;;;;5.65;3.67;;;17.60;76.70;;;;;;4982614;28;20073;-75
2021/08/24 05:44:14;;;;;;;4.00;2.85;;;18.10;75.00;;;;;;4989724;28;20026;-76
2021/08/24 05:46:39;;;;;;;5.28;2.92;;;18.60;73.60;;;;;;4990862;28;20038;-76
2021/08/24 05:49:08;;;;;;;5.35;2.90;;;19.10;72.20;;;;;;4999274;28;20106;-76
2021/08/24 05:51:35;;;;;;;4.20;2.90;;;19.10;71.10;;;;;;4996526;28;20023;-76
2021/08/24 05:54:01;;;;;;;5.78;3.15;;;18.60;71.50;;;;;;4993997;28;20120;-75
2021/08/24 05:56:28;;;;;;;4.15;2.85;;;18.00;72.60;;;;;;5000878;28;20160;-76
2021/08/24 05:58:54;;;;;;;4.05;2.80;;;17.60;73.90;;;;;;4995379;28;20030;-76
2021/08/24 06:01:22;;;;;;;4.75;3.40;;;17.30;74.90;;;;;;4988851;28;20022;-76
2021/08/24 06:03:48;;;;;;;5.60;3.33;;;17.30;75.70;;;;;;5004616;28;20019;-76
2021/08/24 06:06:30;;;;;;;4.35;3.15;;;17.50;75.90;;;;;;4988152;28;20477;-76
2021/08/24 06:08:57;;;;;;;3.40;2.92;;;18.30;74.50;;;;;;4989213;28;20153;-75
2021/08/24 06:11:29;;;;;;;6.13;3.35;;;19.20;72.20;;;;;;4995614;28;20026;-75
2021/08/24 06:13:57;;;;;;;4.35;3.15;;;20.00;69.90;;;;;;4989933;28;20033;-74
2021/08/24 06:16:22;;;;;;;4.80;2.90;;;20.50;68.10;;;;;;4990872;28;20026;-75
2021/08/24 06:18:48;;;;;;;4.93;2.75;;;21.10;66.60;;;;;;4997097;28;20100;-76
2021/08/24 06:21:14;;;;;;;4.47;2.90;;;21.60;65.30;;;;;;5006425;28;20022;-76
2021/08/24 06:23:40;;;;;;;3.70;2.90;;;22.10;64.00;;;;;;4995088;28;20034;-76
2021/08/24 06:26:07;;;;;;;5.63;3.45;;;22.60;62.80;;;;;;4995543;28;20042;-76
2021/08/24 06:28:32;;;;;;;3.97;2.60;;;23.00;61.60;;;;;;4992649;28;20113;-76
2021/08/24 06:30:58;;;;;;;3.90;2.40;;;23.20;60.80;;;;;;4984301;28;20125;-75
2021/08/24 06:33:28;;;;;;;3.65;2.10;;;23.60;60.10;;;;;;5000809;28;20034;-75
2021/08/24 06:35:54;;;;;;;4.93;2.95;;;23.90;59.60;;;;;;4993022;28;20033;-76
2021/08/24 06:38:19;;;;;;;3.30;2.42;;;24.20;58.70;;;;;;4997514;28;20030;-79
2021/08/24 06:40:45;;;;;;;4.55;2.22;;;24.10;58.10;;;;;;4995819;28;20022;-80
2021/08/24 06:43:10;;;;;;;3.58;2.03;;;24.10;58.30;;;;;;5005647;28;20161;-77
2021/08/24 06:45:36;;;;;;;3.35;2.55;;;23.80;58.70;;;;;;5004439;28;20065;-75
2021/08/24 06:48:01;;;;;;;3.63;2.60;;;23.60;59.10;;;;;;5001987;28;20504;-75
2021/08/24 06:50:29;;;;;;;2.80;2.03;;;23.70;59.00;;;;;;4998748;28;20041;-72
2021/08/24 06:52:55;;;;;;;4.15;2.35;;;24.00;58.90;;;;;;4998148;28;20030;-74
2021/08/24 06:55:25;;;;;;;4.63;2.50;;;23.30;59.70;;;;;;4999151;28;20034;-73
2021/08/24 06:57:50;;;;;;;4.72;2.40;;;22.80;60.60;;;;;;4992383;28;20389;-74
2021/08/24 07:00:19;;;;;;;3.45;2.20;;;22.80;61.60;;;;;;5000378;28;20026;-73
2021/08/24 07:02:46;;;;;;;4.32;2.60;;;22.90;61.00;;;;;;4997476;28;20018;-74
2021/08/24 07:05:14;;;;;;;4.50;2.63;;;22.80;61.60;;;;;;4992365;28;20389;-74
2021/08/24 07:07:39;;;;;;;6.00;2.75;;;22.80;61.80;;;;;;5001157;28;20065;-74
2021/08/24 07:10:06;;;;;;;3.53;2.30;;;22.90;61.70;;;;;;4991401;28;20887;-74
2021/08/24 07:12:32;;;;;;;3.33;2.42;;;23.00;61.00;;;;;;4994886;28;20034;-74
2021/08/24 07:14:58;;;;;;;3.97;2.47;;;23.10;61.10;;;;;;4993245;28;20038;-74
2021/08/24 07:17:25;;;;;;;4.30;3.00;;;24.00;59.80;;;;;;4992173;28;20108;-72
2021/08/24 07:19:51;;;;;;;5.70;2.60;;;24.10;59.00;;;;;;4998801;28;20124;-73
2021/08/24 07:22:17;;;;;;;5.00;2.53;;;24.90;58.00;;;;;;4993692;28;20058;-73
2021/08/24 07:24:42;;;;;;;4.30;2.70;;;25.50;56.50;;;;;;4990295;28;20493;-74
2021/08/24 07:27:08;;;;;;;4.70;2.88;;;26.00;55.40;;;;;;4991563;28;20026;-75
2021/08/24 07:29:34;;;;;;;4.65;2.70;;;26.40;54.40;;;;;;4994268;28;20029;-74
2021/08/24 07:32:00;;;;;;;3.40;2.60;;;26.60;53.50;;;;;;4994712;28;20050;-75
2021/08/24 07:34:26;;;;;;;3.63;2.28;;;26.90;52.90;;;;;;4986181;28;20050;-74
2021/08/24 07:36:51;;;;;;;5.00;2.53;;;26.90;52.40;;;;;;4994077;28;20485;-74
2021/08/24 07:39:17;;;;;;;3.33;2.30;;;27.10;52.10;;;;;;4991908;28;20033;-76
2021/08/24 07:41:42;;;;;;;3.60;2.53;;;27.30;51.70;;;;;;4994337;28;20044;-75
2021/08/24 07:44:08;;;;;;;2.88;1.90;;;27.40;51.20;;;;;;4999359;28;20026;-74
2021/08/24 07:46:33;;;;;;;2.85;2.20;;;27.60;51.00;;;;;;4991650;28;20130;-74
2021/08/24 07:48:59;;;;;;;2.80;1.95;;;27.70;50.60;;;;;;5004896;28;20117;-75
2021/08/24 07:51:24;;;;;;;3.03;2.03;;;28.10;50.30;;;;;;4988565;28;20030;-74
2021/08/24 07:53:51;;;;;;;3.20;2.50;;;28.10;50.10;;;;;;4998260;28;20032;-74
2021/08/24 07:56:17;;;;;;;8.80;2.70;;;27.90;49.60;;;;;;4998513;28;20528;-74
2021/08/24 07:58:43;;;;;;;4.40;2.20;;;27.80;49.70;;;;;;4995788;28;20037;-75
2021/08/24 08:01:09;;;;;;;3.95;2.60;;;27.90;49.60;;;;;;4995589;28;20026;-75
2021/08/24 08:03:35;;;;;;;4.38;2.10;;;27.90;49.50;;;;;;4991357;28;20053;-76
2021/08/24 08:06:01;;;;;;;2.17;1.90;;;28.10;49.30;;;;;;5002670;28;20045;-75
2021/08/24 08:08:27;;;;;;;3.53;2.05;;;28.40;48.70;;;;;;4983810;28;20029;-74
2021/08/24 08:10:56;;;;;;;2.30;1.73;;;28.50;48.50;;;;;;4983451;28;20398;-76
2021/08/24 08:13:23;;;;;;;4.00;1.85;;;28.50;48.90;;;;;;4991642;28;20015;-76
2021/08/24 08:15:49;;;;;;;3.25;2.00;;;28.60;48.20;;;;;;4992660;28;20105;-75
2021/08/24 08:18:14;;;;;;;3.45;1.83;;;28.70;47.80;;;;;;4992751;28;20509;-76
2021/08/24 08:20:40;;;;;;;2.17;1.60;;;28.80;47.80;;;;;;4986319;28;20585;-76
2021/08/24 08:23:07;;;;;;;3.95;2.60;;;28.80;47.70;;;;;;4988422;28;20034;-76
2021/08/24 08:25:33;;;;;;;3.10;2.00;;;28.30;46.90;;;;;;4991287;28;20045;-76
2021/08/24 08:27:59;;;;;;;2.58;1.90;;;27.80;48.70;;;;;;4992851;28;20030;-75
2021/08/24 08:30:25;;;;;;;2.75;1.55;;;27.80;49.20;;;;;;4991107;28;20041;-76
2021/08/24 08:32:50;;;;;;;2.83;1.58;;;27.80;49.30;;;;;;4982675;28;20038;-75
2021/08/24 08:35:17;;;;;;;2.30;1.52;;;27.80;49.60;;;;;;4986269;28;20110;-75
2021/08/24 08:37:44;;;;;;;2.25;1.50;;;27.60;49.70;;;;;;4988207;28;20023;-75
2021/08/24 08:40:12;;;;;;;3.83;2.22;;;27.30;50.40;;;;;;4995022;28;20062;-76
2021/08/24 08:42:55;;;;;;;4.57;2.13;;;26.20;50.50;;;;;;4993684;28;20022;-76
2021/08/24 08:45:39;;;;;;;4.10;2.33;;;25.70;52.60;;;;;;4985410;28;20030;-76
2021/08/24 08:48:09;;;;;;;3.67;2.00;;;25.30;53.90;;;;;;4992409;28;20554;-76
2021/08/24 08:50:47;;;;;;;2.60;1.83;;;25.00;54.80;;;;;;4991375;28;20069;-76
2021/08/24 08:53:37;;;;;;;3.33;1.90;;;24.50;56.00;;;;;;4991653;28;20044;-76
2021/08/24 08:56:27;;;;;;;6.63;2.50;;;24.00;56.90;;;;;;4989265;28;20124;-75
2021/08/24 08:59:06;;;;;;;2.38;1.80;;;23.50;57.20;;;;;;4992605;28;20038;-75
2021/08/24 09:01:57;;;;;;;3.10;1.88;;;23.20;58.40;;;;;;4989903;28;20026;-76
2021/08/24 09:04:37;;;;;;;3.15;1.85;;;23.00;59.00;;;;;;4985967;28;20173;-76
2021/08/24 09:07:13;;;;;;;3.03;1.55;;;22.90;59.40;;;;;;4987431;28;20038;-76
2021/08/24 09:09:39;;;;;;;4.40;2.13;;;22.80;59.60;;;;;;4993270;28;20076;-76
2021/08/24 09:12:08;;;;;;;3.45;1.75;;;22.70;59.70;;;;;;4994757;28;20097;-76
2021/08/24 09:14:48;;;;;;;3.78;1.90;;;22.60;60.10;;;;;;4984209;28;20677;-76
2021/08/24 09:17:37;;;;;;;2.78;1.67;;;22.60;60.30;;;;;;4994110;28;20072;-76
2021/08/24 09:20:24;;;;;;;3.38;2.40;;;22.60;60.60;;;;;;4986276;28;20718;-76
2021/08/24 09:22:51;;;;;;;2.92;2.20;;;22.70;60.40;;;;;;4988626;28;20027;-76
2021/08/24 09:25:34;;;;;;;3.03;1.80;;;22.50;59.90;;;;;;4994834;28;20038;-76
2021/08/24 09:28:18;;;;;;;4.82;2.42;;;22.40;60.40;;;;;;4984566;28;20023;-76
2021/08/24 09:30:44;;;;;;;3.38;2.30;;;22.40;60.40;;;;;;4992655;28;20062;-76
2021/08/24 09:33:10;;;;;;;2.90;1.88;;;22.30;61.10;;;;;;4990992;28;20520;-76
2021/08/24 09:35:43;;;;;;;2.75;1.83;;;22.30;61.30;;;;;;4987174;28;20084;-76
2021/08/24 09:38:13;;;;;;;2.33;1.60;;;22.40;61.30;;;;;;4988329;28;20039;-76
2021/08/24 09:40:57;;;;;;;1.40;1.20;;;22.50;61.20;;;;;;4998185;28;20022;-76
2021/08/24 09:43:36;;;;;;;4.30;2.38;;;22.70;61.00;;;;;;4991093;28;20023;-77
2021/08/24 09:46:26;;;;;;;3.55;1.90;;;22.70;60.60;;;;;;5002387;28;20100;-78
2021/08/24 09:49:21;;;;;;;3.70;2.40;;;22.70;59.80;;;;;;4996411;28;20033;-77
2021/08/24 09:51:56;;;;;;;4.68;2.90;;;22.50;60.20;;;;;;4979207;28;20045;-75
2021/08/24 09:54:33;;;;;;;4.10;2.63;;;22.30;60.40;;;;;;4992463;28;20063;-77
2021/08/24 09:57:10;;;;;;;3.17;2.15;;;22.10;60.30;;;;;;4997817;28;20080;-76
2021/08/24 09:59:42;;;;;;;5.15;2.63;;;22.20;60.80;;;;;;4989356;28;20473;-76
2021/08/24 10:02:34;;;;;;;3.35;2.10;;;22.20;59.80;;;;;;5004136;28;20528;-76
2021/08/24 10:05:00;;;;;;;;;;;22.20;60.30;;;;;;5002718;28;20034;-75
2021/08/24 10:07:35;;;;;;;2.13;1.55;;;22.30;60.40;;;;;;4988889;28;19930;-77
2021/08/24 10:10:03;;;;;;;3.55;2.30;;;22.40;60.60;;;;;;4981917;28;20464;-76
2021/08/24 10:12:33;;;;;;;3.53;2.00;;;22.30;60.40;;;;;;4987848;28;20023;-76
2021/08/24 10:15:30;;;;;;;4.32;2.80;;;22.30;60.40;;;;;;4994264;28;20029;-76
2021/08/24 10:18:20;;;;;;;3.65;2.83;;;22.20;59.10;;;;;;4998197;28;20488;-76
2021/08/24 10:20:55;;;;;;;5.70;2.60;;;22.10;59.20;;;;;;4998121;28;20026;-77
2021/08/24 10:23:25;;;;;;;6.65;2.65;;;22.00;59.20;;;;;;4991436;28;20112;-76
2021/08/24 10:25:55;;;;;;;3.22;2.40;;;22.20;59.50;;;;;;4989382;28;20041;-76
2021/08/24 10:28:27;;;;;;;3.58;1.98;;;22.30;59.20;;;;;;4996466;28;20056;-76
2021/08/24 10:31:19;;;;;;;2.78;1.77;;;22.30;57.70;;;;;;4999369;28;20124;-76
2021/08/24 10:33:59;;;;;;;2.75;1.63;;;22.30;57.10;;;;;;5000254;28;20037;-76
2021/08/24 10:36:36;;;;;;;2.63;1.40;;;22.50;57.00;;;;;;4990296;28;20141;-77
2021/08/24 10:39:20;;;;;;;1.70;1.40;;;22.70;56.60;;;;;;4998473;28;20049;-76
2021/08/24 10:42:18;;;;;;;4.53;2.20;;;23.00;56.60;;;;;;5004914;28;20096;-76
2021/08/24 10:44:47;;;;;;;3.08;2.13;;;23.10;54.40;;;;;;4998246;28;20117;-76
2021/08/24 10:47:38;;;;;;;3.40;2.08;;;23.00;54.60;;;;;;5007166;28;20026;-76
2021/08/24 10:50:11;;;;;;;1.90;1.40;;;22.90;53.20;;;;;;5003760;28;20026;-76
2021/08/24 10:53:09;;;;;;;2.95;1.60;;;22.90;54.10;;;;;;4994336;28;20468;-76
2021/08/24 10:55:42;;;;;;;2.13;1.42;;;22.90;54.10;;;;;;4984070;28;20027;-75
2021/08/24 10:58:48;;;;;;;2.88;1.90;;;22.90;53.50;;;;;;4994622;28;20034;-76
2021/08/24 11:01:29;;;;;;;4.20;1.73;;;22.90;53.50;;;;;;4939749;28;20034;-75
2021/08/24 11:04:26;;;;;;;3.97;1.77;;;23.00;53.70;;;;;;4989689;28;20096;-75
2021/08/24 11:07:15;;;;;;;2.83;1.98;;;23.20;53.40;;;;;;4958872;28;20085;-75
2021/08/24 11:09:47;;;;;;;2.53;1.70;;;23.10;51.00;;;;;;4996703;28;20038;-76
2021/08/24 11:12:31;;;;;;;2.35;1.38;;;23.20;51.60;;;;;;4991205;28;20490;-76
2021/08/24 11:15:09;;;;;;;2.58;1.20;;;23.40;51.80;;;;;;4990622;28;20030;-76
2021/08/24 11:18:13;;;;;;;3.15;1.65;;;23.60;51.80;;;;;;4986672;28;20041;-76
2021/08/24 11:20:56;;;;;;;3.03;1.73;;;23.40;51.20;;;;;;4998911;28;20042;-76
2021/08/24 11:23:47;;;;;;;2.97;1.55;;;23.60;51.90;;;;;;4995303;28;20359;-76
2021/08/24 11:26:35;;;;;;;1.60;1.30;;;23.70;51.60;;;;;;4996546;28;20548;-75
2021/08/24 11:29:21;;;;;;;3.33;1.80;;;23.80;51.60;;;;;;4985820;28;20499;-76
2021/08/24 11:32:10;;;;;;;2.00;1.40;;;23.70;48.60;;;;;;4983709;28;20375;-76
2021/08/24 11:34:50;;;;;;;2.13;1.50;;;23.50;48.30;;;;;;4985192;28;20042;-76
2021/08/24 11:37:20;;;;;;;4.65;2.10;;;23.50;47.20;;;;;;4984276;28;20058;-78
2021/08/24 11:40:07;;;;;;;1.85;1.42;;;23.30;46.60;;;;;;4993229;28;20034;-77
2021/08/24 11:42:43;;;;;;;2.28;1.67;;;23.30;47.90;;;;;;4990971;28;20030;-77
2021/08/24 11:45:24;;;;;;;2.13;1.63;;;23.20;46.00;;;;;;4983005;28;20069;-77
2021/08/24 11:48:11;;;;;;;2.30;1.52;;;23.10;45.40;;;;;;4994170;28;20523;-75
2021/08/24 11:50:58;;;;;;;3.20;1.85;;;23.20;46.10;;;;;;4991204;28;20033;-76
2021/08/24 11:53:39;;;;;;;2.45;1.73;;;23.20;45.60;;;;;;4992872;28;20026;-77
2021/08/24 11:56:06;;;;;;;2.63;1.77;;;23.20;45.70;;;;;;4989878;28;20855;-76
2021/08/24 11:58:40;;;;;;;2.25;1.60;;;23.10;44.30;;;;;;4990784;28;20026;-76
2021/08/24 12:01:08;;;;;;;3.17;1.77;;;23.30;45.90;;;;;;4990112;28;20019;-76
2021/08/24 12:03:37;;;;;;;2.30;1.60;;;23.40;45.60;;;;;;4993851;28;20030;-77
2021/08/24 12:06:30;;;;;;;2.63;1.80;;;23.50;45.50;;;;;;4989619;28;20050;-78
2021/08/24 12:08:56;;;;;;;;;;;23.60;45.60;;;;;;4990950;28;20030;-76
2021/08/24 12:11:39;;;;;;;3.55;1.80;;;23.70;45.50;;;;;;4987622;28;19967;-75
2021/08/24 12:14:28;;;;;;;2.15;1.70;;;23.60;45.20;;;;;;4991662;28;20038;-76
2021/08/24 12:17:05;;;;;;;2.58;1.85;;;23.50;46.00;;;;;;4988903;28;20031;-77
2021/08/24 12:19:32;;;;;;;2.38;1.70;;;23.40;45.90;;;;;;4992578;28;20033;-77
2021/08/24 12:22:15;;;;;;;1.65;1.38;;;23.50;46.60;;;;;;4989378;28;20030;-77
2021/08/24 12:24:53;;;;;;;1.80;1.40;;;23.70;46.40;;;;;;4992879;28;20037;-76
2021/08/24 12:27:19;;;;;;;1.77;1.30;;;23.90;46.40;;;;;;4983029;28;20034;-76
2021/08/24 12:29:44;;;;;;;1.92;1.40;;;24.10;45.90;;;;;;4982578;28;20109;-77
2021/08/24 12:32:31;;;;;;;1.55;1.30;;;24.20;45.80;;;;;;4984247;28;20026;-76
2021/08/24 12:35:06;;;;;;;2.75;1.70;;;24.30;45.10;;;;;;4987350;28;20038;-75
2021/08/24 12:37:32;;;;;;;2.05;1.70;;;24.50;44.80;;;;;;4985881;28;20912;-76
2021/08/24 12:40:50;;;;;;;1.92;1.55;;;24.60;44.40;;;;;;4990568;28;20057;-75
2021/08/24 12:43:19;;;;;;;2.55;1.60;;;24.70;44.40;;;;;;4944360;28;20038;-76
2021/08/24 12:45:45;;;;;;;2.28;1.90;;;24.70;44.50;;;;;;4992748;28;20080;-80
2021/08/24 12:48:20;;;;;;;2.60;1.95;;;24.70;44.20;;;;;;4981160;28;20731;-75
2021/08/24 12:50:59;;;;;;;2.72;1.85;;;24.30;42.60;;;;;;4987054;28;20121;-77
2021/08/24 12:53:28;;;;;;;2.53;1.90;;;24.20;43.50;;;;;;4987602;28;20121;-75
2021/08/24 12:55:55;;;;;;;1.70;1.50;;;24.20;44.00;;;;;;4988433;28;20037;-76
2021/08/24 12:58:28;;;;;;;3.67;2.00;;;24.30;43.80;;;;;;4990302;28;20527;-76
2021/08/24 13:01:22;;;;;;;2.65;1.90;;;24.40;44.10;;;;;;4986431;28;20050;-76
2021/08/24 13:04:21;;;;;;;3.08;1.92;;;24.50;44.10;;;;;;4999828;28;20029;-75
2021/08/24 13:07:15;;;;;;;2.30;1.58;;;24.80;44.10;;;;;;4986317;28;20046;-76
2021/08/24 13:09:42;;;;;;;2.92;2.00;;;24.80;43.20;;;;;;4963935;28;20038;-78
2021/08/24 13:12:17;;;;;;;2.67;1.88;;;24.60;43.20;;;;;;4993680;28;20022;-77
2021/08/24 13:14:44;;;;;;;1.83;1.50;;;24.40;43.90;;;;;;4985518;28;20109;-77